sensor_id;sensor_type;location;lat;lon;timestamp;P1;durP1;ratioP1;P2;durP2;ratioP2
74371;SDS011;62885;51.374;6.170;2023-04-03T00:00:44;7.57;;;3.50;;
74371;SDS011;62885;51.374;6.170;2023-04-03T00:03:10;10.77;;;4.13;;
74371;SDS011;62885;51.374;6.170;2023-04-03T00:05:35;7.65;;;4.40;;
74371;SDS011;62885;51.374;6.170;2023-04-03T00:08:01;8.68;;;3.90;;
74371;SDS011;62885;51.374;6.170;2023-04-03T00:10:27;8.93;;;3.83;;
74371;SDS011;62885;51.374;6.170;2023-04-03T00:12:53;5.53;;;3.10;;
74371;SDS011;62885;51.374;6.170;2023-04-03T00:15:18;7.68;;;3.70;;
74371;SDS011;62885;51.374;6.170;2023-04-03T00:17:44;13.27;;;6.70;;
74371;SDS011;62885;51.374;6.170;2023-04-03T00:20:10;13.65;;;6.50;;
74371;SDS011;62885;51.374;6.170;2023-04-03T00:22:36;10.80;;;5.60;;
74371;SDS011;62885;51.374;6.170;2023-04-03T00:25:01;7.40;;;4.00;;
74371;SDS011;62885;51.374;6.170;2023-04-03T00:27:27;9.00;;;4.50;;
74371;SDS011;62885;51.374;6.170;2023-04-03T00:29:53;10.15;;;3.45;;
74371;SDS011;62885;51.374;6.170;2023-04-03T00:32:18;6.10;;;3.28;;
74371;SDS011;62885;51.374;6.170;2023-04-03T00:34:43;7.32;;;3.47;;
74371;SDS011;62885;51.374;6.170;2023-04-03T00:37:09;7.22;;;3.35;;
74371;SDS011;62885;51.374;6.170;2023-04-03T00:39:34;7.95;;;4.20;;
74371;SDS011;62885;51.374;6.170;2023-04-03T00:42:00;8.07;;;3.90;;
74371;SDS011;62885;51.374;6.170;2023-04-03T00:46:53;8.88;;;3.53;;
74371;SDS011;62885;51.374;6.170;2023-04-03T00:49:19;6.75;;;3.22;;
74371;SDS011;62885;51.374;6.170;2023-04-03T00:51:45;7.55;;;3.80;;
74371;SDS011;62885;51.374;6.170;2023-04-03T00:54:10;7.63;;;3.42;;
74371;SDS011;62885;51.374;6.170;2023-04-03T00:56:37;5.47;;;3.30;;
74371;SDS011;62885;51.374;6.170;2023-04-03T00:59:08;7.53;;;3.55;;
74371;SDS011;62885;51.374;6.170;2023-04-03T01:01:38;6.40;;;3.72;;
74371;SDS011;62885;51.374;6.170;2023-04-03T01:04:04;7.95;;;3.60;;
74371;SDS011;62885;51.374;6.170;2023-04-03T01:06:34;5.65;;;3.30;;
74371;SDS011;62885;51.374;6.170;2023-04-03T01:09:01;4.85;;;2.85;;
74371;SDS011;62885;51.374;6.170;2023-04-03T01:11:28;6.15;;;3.88;;
74371;SDS011;62885;51.374;6.170;2023-04-03T01:13:53;7.30;;;3.22;;
74371;SDS011;62885;51.374;6.170;2023-04-03T01:16:19;8.52;;;3.78;;
74371;SDS011;62885;51.374;6.170;2023-04-03T01:18:44;7.75;;;3.53;;
74371;SDS011;62885;51.374;6.170;2023-04-03T01:24:08;8.80;;;3.58;;
74371;SDS011;62885;51.374;6.170;2023-04-03T01:26:42;6.18;;;3.53;;
74371;SDS011;62885;51.374;6.170;2023-04-03T01:29:07;8.02;;;3.50;;
74371;SDS011;62885;51.374;6.170;2023-04-03T01:34:15;10.20;;;3.70;;
74371;SDS011;62885;51.374;6.170;2023-04-03T01:36:40;7.07;;;3.90;;
74371;SDS011;62885;51.374;6.170;2023-04-03T01:39:06;8.88;;;4.15;;
74371;SDS011;62885;51.374;6.170;2023-04-03T01:41:31;8.98;;;4.07;;
74371;SDS011;62885;51.374;6.170;2023-04-03T01:43:57;8.02;;;4.28;;
74371;SDS011;62885;51.374;6.170;2023-04-03T01:46:22;8.10;;;3.95;;
74371;SDS011;62885;51.374;6.170;2023-04-03T01:48:48;6.28;;;3.58;;
74371;SDS011;62885;51.374;6.170;2023-04-03T01:51:14;7.75;;;3.72;;
74371;SDS011;62885;51.374;6.170;2023-04-03T01:53:40;9.90;;;4.07;;
74371;SDS011;62885;51.374;6.170;2023-04-03T01:56:06;9.90;;;4.32;;
74371;SDS011;62885;51.374;6.170;2023-04-03T01:58:32;6.15;;;3.33;;
74371;SDS011;62885;51.374;6.170;2023-04-03T02:00:57;6.28;;;3.58;;
74371;SDS011;62885;51.374;6.170;2023-04-03T02:03:23;7.38;;;3.92;;
74371;SDS011;62885;51.374;6.170;2023-04-03T02:05:49;8.80;;;4.20;;
74371;SDS011;62885;51.374;6.170;2023-04-03T02:08:15;8.75;;;3.90;;
74371;SDS011;62885;51.374;6.170;2023-04-03T02:10:42;7.93;;;4.13;;
74371;SDS011;62885;51.374;6.170;2023-04-03T02:13:08;6.30;;;3.67;;
74371;SDS011;62885;51.374;6.170;2023-04-03T02:15:34;6.82;;;3.58;;
74371;SDS011;62885;51.374;6.170;2023-04-03T02:18:05;9.73;;;4.32;;
74371;SDS011;62885;51.374;6.170;2023-04-03T02:20:30;7.97;;;3.50;;
74371;SDS011;62885;51.374;6.170;2023-04-03T02:22:56;10.00;;;4.03;;
74371;SDS011;62885;51.374;6.170;2023-04-03T02:25:21;6.80;;;3.40;;
74371;SDS011;62885;51.374;6.170;2023-04-03T02:27:46;8.18;;;3.30;;
74371;SDS011;62885;51.374;6.170;2023-04-03T02:30:12;6.63;;;3.88;;
74371;SDS011;62885;51.374;6.170;2023-04-03T02:32:39;8.85;;;3.78;;
74371;SDS011;62885;51.374;6.170;2023-04-03T02:35:05;9.50;;;4.35;;
74371;SDS011;62885;51.374;6.170;2023-04-03T02:37:31;7.35;;;3.33;;
74371;SDS011;62885;51.374;6.170;2023-04-03T02:39:57;6.78;;;3.30;;
74371;SDS011;62885;51.374;6.170;2023-04-03T02:42:22;7.88;;;3.50;;
74371;SDS011;62885;51.374;6.170;2023-04-03T02:44:48;7.72;;;3.60;;
74371;SDS011;62885;51.374;6.170;2023-04-03T02:47:13;7.35;;;3.17;;
74371;SDS011;62885;51.374;6.170;2023-04-03T02:49:38;11.75;;;3.80;;
74371;SDS011;62885;51.374;6.170;2023-04-03T02:52:04;7.15;;;3.30;;
74371;SDS011;62885;51.374;6.170;2023-04-03T02:54:29;7.93;;;3.65;;
74371;SDS011;62885;51.374;6.170;2023-04-03T02:56:55;5.45;;;2.35;;
74371;SDS011;62885;51.374;6.170;2023-04-03T02:59:21;10.65;;;3.10;;
74371;SDS011;62885;51.374;6.170;2023-04-03T03:01:47;5.88;;;3.08;;
74371;SDS011;62885;51.374;6.170;2023-04-03T03:04:12;7.05;;;3.22;;
74371;SDS011;62885;51.374;6.170;2023-04-03T03:06:38;5.07;;;2.63;;
74371;SDS011;62885;51.374;6.170;2023-04-03T03:09:03;7.70;;;2.55;;
74371;SDS011;62885;51.374;6.170;2023-04-03T03:11:29;8.65;;;3.42;;
74371;SDS011;62885;51.374;6.170;2023-04-03T03:13:55;8.80;;;2.53;;
74371;SDS011;62885;51.374;6.170;2023-04-03T03:16:22;4.88;;;2.40;;
74371;SDS011;62885;51.374;6.170;2023-04-03T03:18:48;7.20;;;2.90;;
74371;SDS011;62885;51.374;6.170;2023-04-03T03:21:13;4.60;;;2.03;;
74371;SDS011;62885;51.374;6.170;2023-04-03T03:23:39;4.97;;;1.85;;
74371;SDS011;62885;51.374;6.170;2023-04-03T03:26:05;7.70;;;2.55;;
74371;SDS011;62885;51.374;6.170;2023-04-03T03:28:32;5.68;;;2.05;;
74371;SDS011;62885;51.374;6.170;2023-04-03T03:30:58;6.20;;;2.25;;
74371;SDS011;62885;51.374;6.170;2023-04-03T03:33:24;4.68;;;2.03;;
74371;SDS011;62885;51.374;6.170;2023-04-03T03:35:50;6.03;;;2.17;;
74371;SDS011;62885;51.374;6.170;2023-04-03T03:38:16;6.15;;;1.90;;
74371;SDS011;62885;51.374;6.170;2023-04-03T03:40:41;6.28;;;2.20;;
74371;SDS011;62885;51.374;6.170;2023-04-03T03:43:07;6.10;;;2.40;;
74371;SDS011;62885;51.374;6.170;2023-04-03T03:45:32;4.55;;;1.60;;
74371;SDS011;62885;51.374;6.170;2023-04-03T03:47:57;5.20;;;1.95;;
74371;SDS011;62885;51.374;6.170;2023-04-03T03:50:23;5.10;;;2.20;;
74371;SDS011;62885;51.374;6.170;2023-04-03T03:52:48;4.22;;;1.92;;
74371;SDS011;62885;51.374;6.170;2023-04-03T03:55:13;8.18;;;2.08;;
74371;SDS011;62885;51.374;6.170;2023-04-03T03:57:39;9.88;;;2.25;;
74371;SDS011;62885;51.374;6.170;2023-04-03T04:00:05;4.40;;;1.90;;
74371;SDS011;62885;51.374;6.170;2023-04-03T04:02:32;5.53;;;1.90;;
74371;SDS011;62885;51.374;6.170;2023-04-03T04:04:57;6.82;;;2.42;;
74371;SDS011;62885;51.374;6.170;2023-04-03T04:07:23;3.70;;;1.60;;
74371;SDS011;62885;51.374;6.170;2023-04-03T04:09:48;5.93;;;2.17;;
74371;SDS011;62885;51.374;6.170;2023-04-03T04:12:14;2.75;;;1.42;;
74371;SDS011;62885;51.374;6.170;2023-04-03T04:14:39;6.18;;;1.75;;
74371;SDS011;62885;51.374;6.170;2023-04-03T04:17:05;4.75;;;1.80;;
74371;SDS011;62885;51.374;6.170;2023-04-03T04:19:30;2.60;;;1.48;;
74371;SDS011;62885;51.374;6.170;2023-04-03T04:21:55;9.68;;;2.33;;
74371;SDS011;62885;51.374;6.170;2023-04-03T04:24:21;3.75;;;1.60;;
74371;SDS011;62885;51.374;6.170;2023-04-03T04:26:47;6.70;;;2.15;;
74371;SDS011;62885;51.374;6.170;2023-04-03T04:29:13;6.18;;;2.25;;
74371;SDS011;62885;51.374;6.170;2023-04-03T04:31:39;6.88;;;1.83;;
74371;SDS011;62885;51.374;6.170;2023-04-03T04:34:04;8.63;;;3.33;;
74371;SDS011;62885;51.374;6.170;2023-04-03T04:36:30;5.43;;;1.60;;
74371;SDS011;62885;51.374;6.170;2023-04-03T04:38:55;3.20;;;1.45;;
74371;SDS011;62885;51.374;6.170;2023-04-03T04:41:22;5.70;;;2.20;;
74371;SDS011;62885;51.374;6.170;2023-04-03T04:43:48;4.53;;;1.50;;
74371;SDS011;62885;51.374;6.170;2023-04-03T04:46:14;4.78;;;1.95;;
74371;SDS011;62885;51.374;6.170;2023-04-03T04:48:40;4.65;;;1.63;;
74371;SDS011;62885;51.374;6.170;2023-04-03T04:51:05;5.47;;;2.25;;
74371;SDS011;62885;51.374;6.170;2023-04-03T04:53:31;3.78;;;1.58;;
74371;SDS011;62885;51.374;6.170;2023-04-03T04:55:56;3.90;;;1.45;;
74371;SDS011;62885;51.374;6.170;2023-04-03T04:58:22;4.38;;;1.52;;
74371;SDS011;62885;51.374;6.170;2023-04-03T05:00:47;5.13;;;2.20;;
74371;SDS011;62885;51.374;6.170;2023-04-03T05:03:13;4.00;;;1.60;;
74371;SDS011;62885;51.374;6.170;2023-04-03T05:05:39;5.53;;;1.60;;
74371;SDS011;62885;51.374;6.170;2023-04-03T05:08:05;3.72;;;1.63;;
74371;SDS011;62885;51.374;6.170;2023-04-03T05:10:30;4.18;;;1.60;;
74371;SDS011;62885;51.374;6.170;2023-04-03T05:12:56;6.25;;;2.33;;
74371;SDS011;62885;51.374;6.170;2023-04-03T05:15:22;3.85;;;1.50;;
74371;SDS011;62885;51.374;6.170;2023-04-03T05:17:47;6.20;;;1.50;;
74371;SDS011;62885;51.374;6.170;2023-04-03T05:20:13;5.70;;;1.60;;
74371;SDS011;62885;51.374;6.170;2023-04-03T05:22:38;5.85;;;1.88;;
74371;SDS011;62885;51.374;6.170;2023-04-03T05:25:04;4.78;;;1.25;;
74371;SDS011;62885;51.374;6.170;2023-04-03T05:27:30;3.45;;;1.75;;
74371;SDS011;62885;51.374;6.170;2023-04-03T05:29:56;6.05;;;1.50;;
74371;SDS011;62885;51.374;6.170;2023-04-03T05:32:22;4.93;;;2.00;;
74371;SDS011;62885;51.374;6.170;2023-04-03T05:34:47;5.30;;;1.63;;
74371;SDS011;62885;51.374;6.170;2023-04-03T05:37:13;3.35;;;1.20;;
74371;SDS011;62885;51.374;6.170;2023-04-03T05:39:38;4.82;;;2.25;;
74371;SDS011;62885;51.374;6.170;2023-04-03T05:42:06;6.00;;;1.92;;
74371;SDS011;62885;51.374;6.170;2023-04-03T05:44:31;2.97;;;1.20;;
74371;SDS011;62885;51.374;6.170;2023-04-03T05:46:57;3.33;;;1.02;;
74371;SDS011;62885;51.374;6.170;2023-04-03T05:49:22;3.63;;;1.80;;
74371;SDS011;62885;51.374;6.170;2023-04-03T05:51:47;5.82;;;1.63;;
74371;SDS011;62885;51.374;6.170;2023-04-03T05:54:20;6.88;;;1.60;;
74371;SDS011;62885;51.374;6.170;2023-04-03T05:56:48;6.70;;;1.65;;
74371;SDS011;62885;51.374;6.170;2023-04-03T05:59:15;5.15;;;1.35;;
74371;SDS011;62885;51.374;6.170;2023-04-03T06:01:41;2.50;;;1.00;;
74371;SDS011;62885;51.374;6.170;2023-04-03T06:04:06;5.00;;;1.63;;
74371;SDS011;62885;51.374;6.170;2023-04-03T06:09:11;3.55;;;1.70;;
74371;SDS011;62885;51.374;6.170;2023-04-03T06:11:36;1.80;;;1.02;;
74371;SDS011;62885;51.374;6.170;2023-04-03T06:14:02;3.65;;;1.52;;
74371;SDS011;62885;51.374;6.170;2023-04-03T06:16:28;3.22;;;1.40;;
74371;SDS011;62885;51.374;6.170;2023-04-03T06:18:53;4.00;;;1.48;;
74371;SDS011;62885;51.374;6.170;2023-04-03T06:21:20;4.45;;;1.52;;
74371;SDS011;62885;51.374;6.170;2023-04-03T06:23:45;2.90;;;1.30;;
74371;SDS011;62885;51.374;6.170;2023-04-03T06:26:10;3.55;;;1.33;;
74371;SDS011;62885;51.374;6.170;2023-04-03T06:28:36;6.97;;;1.40;;
74371;SDS011;62885;51.374;6.170;2023-04-03T06:31:02;2.33;;;1.00;;
74371;SDS011;62885;51.374;6.170;2023-04-03T06:33:27;3.88;;;1.33;;
74371;SDS011;62885;51.374;6.170;2023-04-03T06:35:59;5.38;;;1.67;;
74371;SDS011;62885;51.374;6.170;2023-04-03T06:38:24;7.10;;;1.67;;
74371;SDS011;62885;51.374;6.170;2023-04-03T06:40:50;7.38;;;1.40;;
74371;SDS011;62885;51.374;6.170;2023-04-03T06:43:16;3.03;;;1.33;;
74371;SDS011;62885;51.374;6.170;2023-04-03T06:45:42;4.82;;;1.27;;
74371;SDS011;62885;51.374;6.170;2023-04-03T06:48:07;5.45;;;1.65;;
74371;SDS011;62885;51.374;6.170;2023-04-03T06:50:32;6.90;;;1.40;;
74371;SDS011;62885;51.374;6.170;2023-04-03T06:52:57;4.28;;;1.95;;
74371;SDS011;62885;51.374;6.170;2023-04-03T06:55:23;5.20;;;1.73;;
74371;SDS011;62885;51.374;6.170;2023-04-03T06:57:48;5.78;;;1.75;;
74371;SDS011;62885;51.374;6.170;2023-04-03T07:00:15;2.75;;;1.15;;
74371;SDS011;62885;51.374;6.170;2023-04-03T07:02:41;3.58;;;1.52;;
74371;SDS011;62885;51.374;6.170;2023-04-03T07:05:07;3.55;;;1.70;;
74371;SDS011;62885;51.374;6.170;2023-04-03T07:07:33;3.67;;;1.58;;
74371;SDS011;62885;51.374;6.170;2023-04-03T07:09:59;5.63;;;1.55;;
74371;SDS011;62885;51.374;6.170;2023-04-03T07:12:25;3.08;;;1.17;;
74371;SDS011;62885;51.374;6.170;2023-04-03T07:14:51;5.90;;;1.17;;
74371;SDS011;62885;51.374;6.170;2023-04-03T07:17:16;3.58;;;1.38;;
74371;SDS011;62885;51.374;6.170;2023-04-03T07:19:42;4.32;;;1.38;;
74371;SDS011;62885;51.374;6.170;2023-04-03T07:22:07;5.75;;;1.95;;
74371;SDS011;62885;51.374;6.170;2023-04-03T07:24:33;3.67;;;1.95;;
74371;SDS011;62885;51.374;6.170;2023-04-03T07:26:59;5.00;;;1.08;;
74371;SDS011;62885;51.374;6.170;2023-04-03T07:29:25;2.42;;;1.05;;
74371;SDS011;62885;51.374;6.170;2023-04-03T07:31:51;2.97;;;1.33;;
74371;SDS011;62885;51.374;6.170;2023-04-03T07:34:16;4.20;;;1.60;;
74371;SDS011;62885;51.374;6.170;2023-04-03T07:36:42;4.75;;;1.60;;
74371;SDS011;62885;51.374;6.170;2023-04-03T07:39:07;5.03;;;1.70;;
74371;SDS011;62885;51.374;6.170;2023-04-03T07:41:33;7.45;;;2.15;;
74371;SDS011;62885;51.374;6.170;2023-04-03T07:43:58;3.90;;;1.35;;
74371;SDS011;62885;51.374;6.170;2023-04-03T07:46:24;4.22;;;1.88;;
74371;SDS011;62885;51.374;6.170;2023-04-03T07:48:49;5.80;;;2.08;;
74371;SDS011;62885;51.374;6.170;2023-04-03T07:51:15;5.28;;;1.67;;
74371;SDS011;62885;51.374;6.170;2023-04-03T07:53:41;2.85;;;1.63;;
74371;SDS011;62885;51.374;6.170;2023-04-03T07:56:06;3.88;;;2.17;;
74371;SDS011;62885;51.374;6.170;2023-04-03T07:58:32;5.50;;;1.98;;
74371;SDS011;62885;51.374;6.170;2023-04-03T08:00:58;5.95;;;1.80;;
74371;SDS011;62885;51.374;6.170;2023-04-03T08:03:24;6.03;;;1.58;;
74371;SDS011;62885;51.374;6.170;2023-04-03T08:05:53;8.93;;;2.35;;
74371;SDS011;62885;51.374;6.170;2023-04-03T08:08:27;3.85;;;1.67;;
74371;SDS011;62885;51.374;6.170;2023-04-03T08:10:54;4.93;;;1.60;;
74371;SDS011;62885;51.374;6.170;2023-04-03T08:13:20;4.10;;;1.20;;
74371;SDS011;62885;51.374;6.170;2023-04-03T08:15:46;1.05;;;0.73;;
74371;SDS011;62885;51.374;6.170;2023-04-03T08:18:13;4.20;;;1.40;;
74371;SDS011;62885;51.374;6.170;2023-04-03T08:20:39;4.18;;;1.63;;
74371;SDS011;62885;51.374;6.170;2023-04-03T08:23:05;2.60;;;1.13;;
74371;SDS011;62885;51.374;6.170;2023-04-03T08:25:31;4.68;;;1.30;;
74371;SDS011;62885;51.374;6.170;2023-04-03T08:27:57;5.22;;;1.30;;
74371;SDS011;62885;51.374;6.170;2023-04-03T08:30:22;6.38;;;1.50;;
74371;SDS011;62885;51.374;6.170;2023-04-03T08:32:48;3.03;;;1.58;;
74371;SDS011;62885;51.374;6.170;2023-04-03T08:35:13;3.00;;;1.08;;
74371;SDS011;62885;51.374;6.170;2023-04-03T08:37:38;2.42;;;1.15;;
74371;SDS011;62885;51.374;6.170;2023-04-03T08:40:05;2.67;;;1.23;;
74371;SDS011;62885;51.374;6.170;2023-04-03T08:48:07;3.77;;;1.20;;
74371;SDS011;62885;51.374;6.170;2023-04-03T08:50:39;5.97;;;1.52;;
74371;SDS011;62885;51.374;6.170;2023-04-03T08:53:11;5.78;;;1.65;;
74371;SDS011;62885;51.374;6.170;2023-04-03T08:55:40;2.33;;;0.90;;
74371;SDS011;62885;51.374;6.170;2023-04-03T08:58:33;1.38;;;0.65;;
74371;SDS011;62885;51.374;6.170;2023-04-03T09:03:45;5.07;;;1.08;;
74371;SDS011;62885;51.374;6.170;2023-04-03T09:14:19;2.67;;;0.82;;
74371;SDS011;62885;51.374;6.170;2023-04-03T09:16:59;2.22;;;0.85;;
74371;SDS011;62885;51.374;6.170;2023-04-03T09:19:52;2.67;;;0.88;;
74371;SDS011;62885;51.374;6.170;2023-04-03T09:22:25;2.03;;;0.95;;
74371;SDS011;62885;51.374;6.170;2023-04-03T09:25:00;1.88;;;1.00;;
74371;SDS011;62885;51.374;6.170;2023-04-03T09:27:30;1.52;;;0.90;;
74371;SDS011;62885;51.374;6.170;2023-04-03T09:29:56;5.22;;;1.17;;
74371;SDS011;62885;51.374;6.170;2023-04-03T09:32:32;3.08;;;0.88;;
74371;SDS011;62885;51.374;6.170;2023-04-03T09:35:03;3.05;;;0.70;;
74371;SDS011;62885;51.374;6.170;2023-04-03T09:37:48;3.05;;;0.93;;
74371;SDS011;62885;51.374;6.170;2023-04-03T09:42:59;3.63;;;1.00;;
74371;SDS011;62885;51.374;6.170;2023-04-03T09:45:45;1.38;;;0.73;;
74371;SDS011;62885;51.374;6.170;2023-04-03T09:48:15;1.65;;;0.70;;
74371;SDS011;62885;51.374;6.170;2023-04-03T09:53:25;2.97;;;0.80;;
74371;SDS011;62885;51.374;6.170;2023-04-03T09:58:24;4.90;;;0.90;;
74371;SDS011;62885;51.374;6.170;2023-04-03T10:00:55;0.85;;;0.60;;
74371;SDS011;62885;51.374;6.170;2023-04-03T10:03:32;1.85;;;0.60;;
74371;SDS011;62885;51.374;6.170;2023-04-03T10:06:00;1.58;;;0.40;;
74371;SDS011;62885;51.374;6.170;2023-04-03T10:08:31;1.52;;;0.68;;
74371;SDS011;62885;51.374;6.170;2023-04-03T10:13:32;0.77;;;0.28;;
74371;SDS011;62885;51.374;6.170;2023-04-03T10:16:12;0.52;;;0.20;;
74371;SDS011;62885;51.374;6.170;2023-04-03T10:21:57;2.58;;;0.50;;
74371;SDS011;62885;51.374;6.170;2023-04-03T10:38:14;1.80;;;0.47;;
74371;SDS011;62885;51.374;6.170;2023-04-03T10:40:57;1.27;;;0.60;;
74371;SDS011;62885;51.374;6.170;2023-04-03T10:52:24;0.85;;;0.47;;
74371;SDS011;62885;51.374;6.170;2023-04-03T10:57:24;1.33;;;0.60;;
74371;SDS011;62885;51.374;6.170;2023-04-03T11:00:05;1.55;;;0.40;;
74371;SDS011;62885;51.374;6.170;2023-04-03T11:02:41;1.67;;;0.47;;
74371;SDS011;62885;51.374;6.170;2023-04-03T11:05:29;0.93;;;0.65;;
74371;SDS011;62885;51.374;6.170;2023-04-03T11:10:46;6.22;;;0.60;;
74371;SDS011;62885;51.374;6.170;2023-04-03T11:15:38;0.97;;;0.57;;
74371;SDS011;62885;51.374;6.170;2023-04-03T11:18:06;1.45;;;0.52;;
74371;SDS011;62885;51.374;6.170;2023-04-03T11:20:37;1.45;;;0.60;;
74371;SDS011;62885;51.374;6.170;2023-04-03T11:23:52;2.35;;;0.60;;
74371;SDS011;62885;51.374;6.170;2023-04-03T11:26:07;0.57;;;0.30;;
74371;SDS011;62885;51.374;6.170;2023-04-03T11:28:35;1.45;;;0.65;;
74371;SDS011;62885;51.374;6.170;2023-04-03T11:36:46;4.22;;;0.63;;
74371;SDS011;62885;51.374;6.170;2023-04-03T11:39:33;0.40;;;0.40;;
74371;SDS011;62885;51.374;6.170;2023-04-03T11:47:50;2.58;;;0.80;;
74371;SDS011;62885;51.374;6.170;2023-04-03T11:53:00;0.82;;;0.43;;
74371;SDS011;62885;51.374;6.170;2023-04-03T12:05:47;2.22;;;0.77;;
74371;SDS011;62885;51.374;6.170;2023-04-03T12:16:19;1.67;;;0.50;;
74371;SDS011;62885;51.374;6.170;2023-04-03T12:21:22;2.05;;;0.77;;
74371;SDS011;62885;51.374;6.170;2023-04-03T12:29:33;2.20;;;0.80;;
74371;SDS011;62885;51.374;6.170;2023-04-03T12:34:59;1.92;;;0.70;;
74371;SDS011;62885;51.374;6.170;2023-04-03T12:37:48;3.08;;;0.93;;
74371;SDS011;62885;51.374;6.170;2023-04-03T12:43:05;2.88;;;1.17;;
74371;SDS011;62885;51.374;6.170;2023-04-03T12:45:58;3.22;;;0.90;;
74371;SDS011;62885;51.374;6.170;2023-04-03T12:48:29;2.10;;;0.77;;
74371;SDS011;62885;51.374;6.170;2023-04-03T12:50:57;2.25;;;0.70;;
74371;SDS011;62885;51.374;6.170;2023-04-03T12:53:34;4.57;;;1.10;;
74371;SDS011;62885;51.374;6.170;2023-04-03T12:56:21;1.58;;;1.08;;
74371;SDS011;62885;51.374;6.170;2023-04-03T12:58:52;5.00;;;1.00;;
74371;SDS011;62885;51.374;6.170;2023-04-03T13:01:23;2.97;;;0.98;;
74371;SDS011;62885;51.374;6.170;2023-04-03T13:03:52;1.52;;;0.70;;
74371;SDS011;62885;51.374;6.170;2023-04-03T13:06:27;2.53;;;0.90;;
74371;SDS011;62885;51.374;6.170;2023-04-03T13:08:58;4.60;;;1.30;;
74371;SDS011;62885;51.374;6.170;2023-04-03T13:11:31;1.10;;;0.80;;
74371;SDS011;62885;51.374;6.170;2023-04-03T13:14:02;2.42;;;1.10;;
74371;SDS011;62885;51.374;6.170;2023-04-03T13:16:30;2.33;;;0.68;;
74371;SDS011;62885;51.374;6.170;2023-04-03T13:18:56;2.45;;;1.33;;
74371;SDS011;62885;51.374;6.170;2023-04-03T13:21:26;1.83;;;0.80;;
74371;SDS011;62885;51.374;6.170;2023-04-03T13:23:57;5.75;;;1.45;;
74371;SDS011;62885;51.374;6.170;2023-04-03T13:26:25;1.65;;;0.70;;
74371;SDS011;62885;51.374;6.170;2023-04-03T13:28:55;1.98;;;1.00;;
74371;SDS011;62885;51.374;6.170;2023-04-03T13:31:26;4.20;;;1.00;;
74371;SDS011;62885;51.374;6.170;2023-04-03T13:36:38;1.70;;;0.60;;
74371;SDS011;62885;51.374;6.170;2023-04-03T13:41:51;1.08;;;0.70;;
74371;SDS011;62885;51.374;6.170;2023-04-03T13:44:25;1.88;;;0.90;;
74371;SDS011;62885;51.374;6.170;2023-04-03T13:46:54;2.30;;;0.68;;
74371;SDS011;62885;51.374;6.170;2023-04-03T13:49:35;1.08;;;0.57;;
74371;SDS011;62885;51.374;6.170;2023-04-03T13:52:17;3.33;;;0.98;;
74371;SDS011;62885;51.374;6.170;2023-04-03T13:55:00;1.17;;;0.65;;
74371;SDS011;62885;51.374;6.170;2023-04-03T13:57:36;2.42;;;0.80;;
74371;SDS011;62885;51.374;6.170;2023-04-03T14:00:18;2.53;;;0.85;;
74371;SDS011;62885;51.374;6.170;2023-04-03T14:02:50;3.95;;;0.98;;
74371;SDS011;62885;51.374;6.170;2023-04-03T14:05:19;1.67;;;0.80;;
74371;SDS011;62885;51.374;6.170;2023-04-03T14:07:46;2.70;;;0.73;;
74371;SDS011;62885;51.374;6.170;2023-04-03T14:10:11;2.38;;;0.77;;
74371;SDS011;62885;51.374;6.170;2023-04-03T14:12:37;5.80;;;0.90;;
74371;SDS011;62885;51.374;6.170;2023-04-03T14:15:06;6.40;;;0.80;;
74371;SDS011;62885;51.374;6.170;2023-04-03T14:17:40;1.23;;;0.77;;
74371;SDS011;62885;51.374;6.170;2023-04-03T14:20:10;2.45;;;0.95;;
74371;SDS011;62885;51.374;6.170;2023-04-03T14:22:40;3.05;;;1.17;;
74371;SDS011;62885;51.374;6.170;2023-04-03T14:25:06;4.07;;;1.08;;
74371;SDS011;62885;51.374;6.170;2023-04-03T14:28:06;2.47;;;0.80;;
74371;SDS011;62885;51.374;6.170;2023-04-03T14:30:32;3.03;;;1.17;;
74371;SDS011;62885;51.374;6.170;2023-04-03T14:32:58;1.50;;;0.85;;
74371;SDS011;62885;51.374;6.170;2023-04-03T14:35:27;1.67;;;0.90;;
74371;SDS011;62885;51.374;6.170;2023-04-03T14:37:53;3.40;;;1.00;;
74371;SDS011;62885;51.374;6.170;2023-04-03T14:40:22;3.72;;;1.20;;
74371;SDS011;62885;51.374;6.170;2023-04-03T14:42:50;2.58;;;0.93;;
74371;SDS011;62885;51.374;6.170;2023-04-03T14:45:20;1.45;;;0.60;;
74371;SDS011;62885;51.374;6.170;2023-04-03T14:47:51;3.08;;;0.90;;
74371;SDS011;62885;51.374;6.170;2023-04-03T14:50:22;2.95;;;0.90;;
74371;SDS011;62885;51.374;6.170;2023-04-03T14:52:50;5.38;;;0.90;;
74371;SDS011;62885;51.374;6.170;2023-04-03T14:55:19;1.27;;;0.60;;
74371;SDS011;62885;51.374;6.170;2023-04-03T14:57:46;2.38;;;0.63;;
74371;SDS011;62885;51.374;6.170;2023-04-03T15:00:13;1.75;;;0.70;;
74371;SDS011;62885;51.374;6.170;2023-04-03T15:02:41;2.45;;;0.70;;
74371;SDS011;62885;51.374;6.170;2023-04-03T15:05:08;4.07;;;1.33;;
74371;SDS011;62885;51.374;6.170;2023-04-03T15:07:39;1.90;;;0.80;;
74371;SDS011;62885;51.374;6.170;2023-04-03T15:10:14;1.63;;;0.85;;
74371;SDS011;62885;51.374;6.170;2023-04-03T15:12:45;2.20;;;0.75;;
74371;SDS011;62885;51.374;6.170;2023-04-03T15:15:12;4.10;;;1.10;;
74371;SDS011;62885;51.374;6.170;2023-04-03T15:17:38;3.13;;;0.95;;
74371;SDS011;62885;51.374;6.170;2023-04-03T15:20:11;2.35;;;0.65;;
74371;SDS011;62885;51.374;6.170;2023-04-03T15:22:39;1.40;;;0.68;;
74371;SDS011;62885;51.374;6.170;2023-04-03T15:25:05;1.35;;;0.52;;
74371;SDS011;62885;51.374;6.170;2023-04-03T15:27:30;3.70;;;0.60;;
74371;SDS011;62885;51.374;6.170;2023-04-03T15:29:55;1.63;;;0.80;;
74371;SDS011;62885;51.374;6.170;2023-04-03T15:32:21;1.52;;;0.80;;
74371;SDS011;62885;51.374;6.170;2023-04-03T15:34:46;4.78;;;0.95;;
74371;SDS011;62885;51.374;6.170;2023-04-03T15:37:11;3.60;;;0.82;;
74371;SDS011;62885;51.374;6.170;2023-04-03T15:39:37;0.90;;;0.70;;
74371;SDS011;62885;51.374;6.170;2023-04-03T15:42:02;2.25;;;0.70;;
74371;SDS011;62885;51.374;6.170;2023-04-03T15:44:31;2.00;;;0.60;;
74371;SDS011;62885;51.374;6.170;2023-04-03T15:46:58;2.55;;;0.50;;
74371;SDS011;62885;51.374;6.170;2023-04-03T15:49:24;4.18;;;0.90;;
74371;SDS011;62885;51.374;6.170;2023-04-03T15:51:50;2.22;;;0.80;;
74371;SDS011;62885;51.374;6.170;2023-04-03T15:54:15;1.42;;;0.60;;
74371;SDS011;62885;51.374;6.170;2023-04-03T15:56:41;0.95;;;0.57;;
74371;SDS011;62885;51.374;6.170;2023-04-03T15:59:09;4.90;;;0.80;;
74371;SDS011;62885;51.374;6.170;2023-04-03T16:01:35;1.80;;;0.90;;
74371;SDS011;62885;51.374;6.170;2023-04-03T16:04:02;1.60;;;0.68;;
74371;SDS011;62885;51.374;6.170;2023-04-03T16:06:28;2.97;;;0.98;;
74371;SDS011;62885;51.374;6.170;2023-04-03T16:08:55;1.38;;;0.70;;
74371;SDS011;62885;51.374;6.170;2023-04-03T16:11:23;4.05;;;1.25;;
74371;SDS011;62885;51.374;6.170;2023-04-03T16:13:50;2.67;;;1.33;;
74371;SDS011;62885;51.374;6.170;2023-04-03T16:16:15;2.00;;;0.90;;
74371;SDS011;62885;51.374;6.170;2023-04-03T16:18:40;1.58;;;0.68;;
74371;SDS011;62885;51.374;6.170;2023-04-03T16:21:06;2.50;;;0.75;;
74371;SDS011;62885;51.374;6.170;2023-04-03T16:23:33;1.42;;;0.73;;
74371;SDS011;62885;51.374;6.170;2023-04-03T16:25:58;4.45;;;0.90;;
74371;SDS011;62885;51.374;6.170;2023-04-03T16:28:24;3.97;;;1.05;;
74371;SDS011;62885;51.374;6.170;2023-04-03T16:30:49;1.23;;;0.47;;
74371;SDS011;62885;51.374;6.170;2023-04-03T16:33:15;1.85;;;0.70;;
74371;SDS011;62885;51.374;6.170;2023-04-03T16:35:41;1.52;;;0.80;;
74371;SDS011;62885;51.374;6.170;2023-04-03T16:38:09;1.55;;;1.10;;
74371;SDS011;62885;51.374;6.170;2023-04-03T16:40:35;4.50;;;0.70;;
74371;SDS011;62885;51.374;6.170;2023-04-03T16:43:00;2.25;;;0.80;;
74371;SDS011;62885;51.374;6.170;2023-04-03T16:45:26;3.90;;;0.90;;
74371;SDS011;62885;51.374;6.170;2023-04-03T16:47:52;5.72;;;0.90;;
74371;SDS011;62885;51.374;6.170;2023-04-03T16:50:17;2.33;;;1.02;;
74371;SDS011;62885;51.374;6.170;2023-04-03T16:52:44;1.88;;;0.70;;
74371;SDS011;62885;51.374;6.170;2023-04-03T16:55:10;1.65;;;0.60;;